Ana Sayfa
METAR-TAF:

METAR-TAF

Havaalanları :

Hutchinson County Airport

Borger, Teksas, Amerika Birleşik Devletleri

Enlem: 35-41-42N, Boylam: 101-23-42W, yükseklik: 931 m

Güncel hava durumu gözlemi

Rapor saat 05:51 UTC de 24 dakika önce yapıldı.
Rüzgar kuzeydoğudan 14 kt ve 21 kt'a kadar ani rüzgarlar
Sıcaklık 7°C
Nem 81%
Basınç 1010 hPa
Görüş mesafesi: 14.5 km
400 ft yükseklikte parçalı çok bulutlu
1500 ft yükseklikte çok bulutlu

METAR: KBGD 280551Z AUTO 05014G21KT 9SM BKN004 OVC015 07/04 A2983 RMK AO2 SLP087 60001 T00720044 10172 20072 402000006 51005

Saat: 00:15 (06:15 UTC)


TAF: eksik

4.000'den fazla havaalanı için hava durumu gözlemleri ve tahminleri (METAR ve TAF raporları).

Kullanılabilir istasyonlar harita üzerinde sarı ve kırmızı noktalarla gösterilir.

İstasyonun adını görmek için fareyi noktanın üzerinde gezdirin.

Sonrasında hava gözlem ve tahminlerini görmek için tıklayın.

Haritayı değiştirmek için: yaklaştırmak için siyah artı işaretli yeşil düğmeye ve uzaklaştırmak için de eksi işaretli düğmeye hızla tıklayın; bitişik haritalar için yeşil okları kullanın.


METAR-TAF: